createdAt,value
2022-11-02T00:00:35.129Z,8.80
2022-11-02T00:03:22.818Z,8.74
2022-11-02T00:05:50.013Z,8.67
2022-11-02T00:08:17.274Z,8.56
2022-11-02T00:10:44.684Z,8.58
2022-11-02T00:13:12.523Z,8.58
2022-11-02T00:15:39.642Z,8.59
2022-11-02T00:18:11.612Z,8.58
2022-11-02T00:20:40.266Z,8.55
2022-11-02T00:23:10.873Z,8.47
2022-11-02T00:25:44.263Z,8.48
2022-11-02T00:28:12.676Z,8.45
2022-11-02T00:30:39.820Z,8.37
2022-11-02T00:33:07.301Z,8.30
2022-11-02T00:35:36.523Z,8.15
2022-11-02T00:38:04.398Z,8.19
2022-11-02T00:40:32.860Z,8.14
2022-11-02T00:43:00.118Z,8.12
2022-11-02T00:45:27.099Z,8.13
2022-11-02T00:47:54.695Z,8.06
2022-11-02T00:50:21.728Z,8.06
2022-11-02T00:52:49.053Z,8.03
2022-11-02T00:55:18.143Z,8.08
2022-11-02T00:57:45.558Z,8.06
2022-11-02T01:00:12.966Z,8.05
2022-11-02T01:02:41.259Z,8.05
2022-11-02T01:05:10.237Z,8.01
2022-11-02T01:07:37.802Z,7.92
2022-11-02T01:10:07.361Z,7.90
2022-11-02T01:12:37.702Z,7.86
2022-11-02T01:15:07.130Z,7.79
2022-11-02T01:17:34.673Z,7.79
2022-11-02T01:20:02.094Z,7.76
2022-11-02T01:22:29.289Z,7.72
2022-11-02T01:24:56.259Z,7.68
2022-11-02T01:27:23.886Z,7.66
2022-11-02T01:29:57.216Z,7.68
2022-11-02T01:32:40.634Z,7.69
2022-11-02T01:35:08.294Z,7.72
2022-11-02T01:37:35.513Z,7.73
2022-11-02T01:40:02.797Z,7.71
2022-11-02T01:42:29.966Z,7.65
2022-11-02T01:44:57.386Z,7.63
2022-11-02T01:47:40.645Z,7.62
2022-11-02T01:50:22.324Z,7.60
2022-11-02T01:52:49.410Z,7.58
2022-11-02T01:55:29.508Z,7.62
2022-11-02T01:58:10.281Z,7.75
2022-11-02T02:00:38.879Z,7.78
2022-11-02T02:03:09.456Z,7.75
2022-11-02T02:05:49.557Z,7.76
2022-11-02T02:08:20.164Z,7.71
2022-11-02T02:10:47.462Z,7.72
2022-11-02T02:13:15.961Z,7.76
2022-11-02T02:16:15.811Z,7.78
2022-11-02T02:18:50.495Z,7.81
2022-11-02T02:21:51.346Z,7.83
2022-11-02T02:25:11.505Z,7.94
2022-11-02T02:27:57.228Z,8.17
2022-11-02T02:30:24.615Z,8.23
2022-11-02T02:33:05.940Z,8.24
2022-11-02T02:35:59.391Z,8.16
2022-11-02T02:38:30.824Z,8.10
2022-11-02T02:41:09.354Z,8.18
2022-11-02T02:44:00.726Z,8.34
2022-11-02T02:46:40.546Z,8.51
2022-11-02T02:49:13.500Z,8.51
2022-11-02T02:51:42.045Z,8.42
2022-11-02T02:54:15.188Z,8.32
2022-11-02T02:56:50.022Z,8.14
2022-11-02T02:59:34.144Z,7.97
2022-11-02T03:02:01.303Z,7.86
2022-11-02T03:04:29.958Z,7.83
2022-11-02T03:07:01.496Z,7.77
2022-11-02T03:09:42.063Z,7.74
2022-11-02T03:12:16.762Z,7.73
2022-11-02T03:14:58.441Z,7.68
2022-11-02T03:17:48.577Z,7.64
2022-11-02T03:20:48.562Z,7.71
2022-11-02T03:23:33.660Z,7.79
2022-11-02T03:26:04.464Z,7.90
2022-11-02T03:28:54.873Z,8.00
2022-11-02T03:31:28.510Z,8.09
2022-11-02T03:34:15.786Z,8.17
2022-11-02T03:39:49.769Z,8.30
2022-11-02T03:42:19.376Z,8.18
2022-11-02T03:44:49.741Z,7.87
2022-11-02T03:47:20.877Z,7.59
2022-11-02T03:49:50.534Z,7.38
2022-11-02T03:52:23.792Z,7.26
2022-11-02T03:55:11.560Z,7.14
2022-11-02T03:57:46.329Z,7.06
2022-11-02T04:00:16.322Z,7.00
2022-11-02T04:02:48.567Z,7.00
2022-11-02T04:05:16.262Z,6.93
2022-11-02T04:08:07.513Z,6.87
2022-11-02T04:10:35.202Z,6.85
2022-11-02T04:13:21.070Z,6.80
2022-11-02T04:15:48.367Z,6.77
2022-11-02T04:18:34.495Z,6.73
2022-11-02T04:21:02.522Z,6.66
2022-11-02T04:23:48.631Z,6.58
2022-11-02T04:26:15.672Z,6.50
2022-11-02T04:28:42.964Z,6.49
2022-11-02T04:31:13.097Z,6.46
2022-11-02T04:33:41.497Z,6.38
2022-11-02T04:36:08.780Z,6.35
2022-11-02T04:38:42.095Z,6.37
2022-11-02T04:41:32.420Z,6.34
2022-11-02T04:44:00.527Z,6.33
2022-11-02T04:46:29.800Z,6.31
2022-11-02T04:48:57.380Z,6.28
2022-11-02T04:51:26.621Z,6.26
2022-11-02T04:53:55.354Z,6.29
2022-11-02T04:56:22.838Z,6.30
2022-11-02T04:59:01.816Z,6.28
2022-11-02T05:01:35.703Z,6.28
2022-11-02T05:04:04.720Z,6.28
2022-11-02T05:06:31.663Z,6.28
2022-11-02T05:08:58.900Z,6.29
2022-11-02T05:11:25.870Z,6.24
2022-11-02T05:16:46.314Z,6.28
2022-11-02T05:22:20.079Z,6.29
2022-11-02T05:24:47.292Z,6.26
2022-11-02T05:27:14.532Z,6.25
2022-11-02T05:29:42.063Z,6.33
2022-11-02T05:32:09.328Z,6.37
2022-11-02T05:34:38.198Z,6.47
2022-11-02T05:37:05.760Z,6.49
2022-11-02T05:39:33.068Z,6.56
2022-11-02T05:42:00.119Z,6.65
2022-11-02T05:44:27.369Z,6.73
2022-11-02T05:46:54.335Z,6.82
2022-11-02T05:49:21.926Z,6.88
2022-11-02T05:51:49.513Z,6.99
2022-11-02T05:54:18.105Z,7.06
2022-11-02T05:56:45.824Z,7.13
2022-11-02T06:04:44.669Z,7.35
2022-11-02T06:07:11.955Z,7.47
2022-11-02T06:09:39.382Z,7.58
2022-11-02T06:14:51.893Z,7.72
2022-11-02T06:17:20.009Z,7.78
2022-11-02T06:19:48.202Z,7.92
2022-11-02T06:22:15.256Z,7.99
2022-11-02T06:24:42.513Z,8.11
2022-11-02T06:27:09.541Z,8.26
2022-11-02T06:29:36.799Z,8.41
2022-11-02T06:32:03.912Z,8.57
2022-11-02T06:34:31.185Z,8.75
2022-11-02T06:40:25.631Z,9.23
2022-11-02T06:43:15.281Z,9.44
2022-11-02T06:45:43.815Z,9.69
2022-11-02T06:48:13.735Z,9.90
2022-11-02T06:50:43.728Z,10.09
2022-11-02T06:55:55.611Z,10.52
2022-11-02T06:58:24.216Z,10.72
2022-11-02T07:00:56.561Z,10.89
2022-11-02T07:03:47.670Z,11.02
2022-11-02T07:06:25.631Z,11.22
2022-11-02T07:08:53.811Z,11.36
2022-11-02T07:11:22.190Z,11.52
2022-11-02T07:13:51.895Z,11.70
2022-11-02T07:16:21.563Z,11.81
2022-11-02T07:21:33.401Z,12.07
2022-11-02T07:24:00.829Z,12.15
2022-11-02T07:26:34.448Z,12.29
2022-11-02T07:29:01.431Z,12.37
2022-11-02T07:31:28.712Z,12.50
2022-11-02T07:33:55.744Z,12.57
2022-11-02T07:36:23.197Z,12.62
2022-11-02T07:38:50.130Z,12.74
2022-11-02T07:41:17.344Z,12.76
2022-11-02T07:43:44.465Z,12.88
2022-11-02T07:46:12.652Z,13.00
2022-11-02T07:48:39.878Z,13.10
2022-11-02T07:53:55.593Z,13.30
2022-11-02T07:56:22.907Z,13.40
2022-11-02T07:58:49.842Z,13.48
2022-11-02T08:01:17.070Z,13.54
2022-11-02T08:03:44.146Z,13.60
2022-11-02T08:06:11.360Z,13.68
2022-11-02T08:08:38.296Z,13.73
2022-11-02T08:11:09.313Z,13.87
2022-11-02T08:13:42.196Z,13.93
2022-11-02T08:16:09.719Z,14.02
2022-11-02T08:21:40.795Z,14.17
2022-11-02T08:24:08.214Z,14.30
2022-11-02T08:26:35.221Z,14.40
2022-11-02T08:29:03.268Z,14.46
2022-11-02T08:31:30.248Z,14.55
2022-11-02T08:33:58.855Z,14.61
2022-11-02T08:36:25.871Z,14.71
2022-11-02T08:38:53.182Z,14.81
2022-11-02T08:41:21.533Z,14.90
2022-11-02T08:43:49.507Z,14.97
2022-11-02T08:46:47.717Z,15.11
2022-11-02T08:49:18.662Z,15.23
2022-11-02T08:51:45.975Z,15.31
2022-11-02T08:54:13.950Z,15.38
2022-11-02T08:56:41.131Z,15.51
2022-11-02T08:59:08.943Z,15.70
2022-11-02T09:01:35.957Z,15.93
2022-11-02T09:04:06.004Z,16.43
2022-11-02T09:06:32.999Z,17.75
2022-11-02T09:09:00.426Z,18.96
2022-11-02T09:11:27.574Z,20.01
2022-11-02T09:13:57.116Z,20.93
2022-11-02T09:16:24.393Z,21.34
2022-11-02T09:18:52.547Z,22.28
2022-11-02T09:21:19.487Z,23.29
2022-11-02T09:23:48.641Z,23.79
2022-11-02T09:26:16.085Z,23.69
2022-11-02T09:28:43.562Z,23.78
2022-11-02T09:31:11.772Z,24.36
2022-11-02T09:33:39.594Z,24.81
2022-11-02T09:36:07.298Z,24.26
2022-11-02T09:38:34.692Z,23.17
2022-11-02T09:41:22.000Z,22.65
2022-11-02T09:43:58.216Z,21.61
2022-11-02T09:46:32.705Z,20.50
2022-11-02T09:49:00.260Z,19.95
2022-11-02T09:51:35.239Z,19.64
2022-11-02T09:54:17.153Z,19.30
2022-11-02T09:56:46.362Z,18.96
2022-11-02T09:59:24.634Z,18.80
2022-11-02T10:02:05.779Z,18.77
2022-11-02T10:05:10.741Z,18.86
2022-11-02T10:07:43.686Z,19.02
2022-11-02T10:10:10.979Z,18.93
2022-11-02T10:12:58.084Z,18.80
2022-11-02T10:15:37.210Z,18.68
2022-11-02T10:18:05.708Z,18.84
2022-11-02T10:20:42.582Z,18.77
2022-11-02T10:23:18.587Z,18.65
2022-11-02T10:25:48.489Z,18.79
2022-11-02T10:28:27.421Z,18.58
2022-11-02T10:30:55.680Z,18.34
2022-11-02T10:33:26.984Z,18.47
2022-11-02T10:36:28.186Z,18.52
2022-11-02T10:38:55.019Z,18.47
2022-11-02T10:41:39.147Z,18.37
2022-11-02T10:44:22.303Z,18.62
2022-11-02T10:47:05.615Z,19.00
2022-11-02T10:50:12.562Z,19.02
2022-11-02T10:52:43.646Z,18.99
2022-11-02T10:55:41.433Z,18.77
2022-11-02T10:58:15.957Z,18.49
2022-11-02T11:00:43.371Z,18.65
2022-11-02T11:03:13.409Z,18.91
2022-11-02T11:06:02.824Z,18.85
2022-11-02T11:08:43.022Z,18.70
2022-11-02T11:11:21.518Z,18.51
2022-11-02T11:16:52.410Z,18.13
2022-11-02T11:22:22.553Z,17.81
2022-11-02T11:24:49.967Z,17.75
2022-11-02T11:27:23.997Z,17.71
2022-11-02T11:29:59.100Z,17.67
2022-11-02T11:32:30.562Z,17.75
2022-11-02T11:35:14.868Z,17.90
2022-11-02T11:37:54.813Z,18.05
2022-11-02T11:40:23.409Z,18.10
2022-11-02T11:42:56.363Z,18.10
2022-11-02T11:45:27.962Z,17.90
2022-11-02T11:48:32.567Z,17.87
2022-11-02T11:51:02.609Z,17.75
2022-11-02T11:53:30.008Z,17.67
2022-11-02T11:55:59.950Z,17.46
2022-11-02T11:58:30.088Z,17.28
2022-11-02T12:01:13.023Z,17.15
2022-11-02T12:03:53.912Z,16.91
2022-11-02T12:06:59.814Z,16.79
2022-11-02T12:09:45.781Z,16.68
2022-11-02T12:12:34.575Z,16.66
2022-11-02T12:15:23.110Z,16.63
2022-11-02T12:18:06.823Z,16.58
2022-11-02T12:21:22.292Z,16.66
2022-11-02T12:24:18.973Z,16.89
2022-11-02T12:27:41.852Z,17.07
2022-11-02T12:30:11.304Z,17.34
2022-11-02T12:32:53.539Z,17.30
2022-11-02T12:35:55.991Z,17.15
2022-11-02T12:39:04.493Z,17.08
2022-11-02T12:41:51.272Z,16.84
2022-11-02T12:47:59.774Z,16.63
2022-11-02T12:58:06.981Z,16.25
2022-11-02T13:04:54.756Z,16.00
2022-11-02T13:08:27.250Z,15.96
2022-11-02T13:11:46.183Z,15.80
2022-11-02T13:15:16.270Z,15.85
2022-11-02T13:18:53.077Z,15.85
2022-11-02T13:22:15.879Z,15.84
2022-11-02T13:25:03.660Z,15.84
2022-11-02T13:28:20.307Z,15.82
2022-11-02T13:31:00.737Z,15.77
2022-11-02T13:34:12.247Z,15.73
2022-11-02T13:36:46.795Z,15.61
2022-11-02T13:39:30.309Z,15.51
2022-11-02T13:42:33.760Z,15.46
2022-11-02T13:45:30.797Z,15.42
2022-11-02T13:48:23.073Z,15.40
2022-11-02T13:50:55.646Z,15.36
2022-11-02T13:53:48.460Z,15.38
2022-11-02T13:56:24.447Z,15.34
2022-11-02T13:59:20.931Z,15.24
2022-11-02T14:01:53.846Z,15.18
2022-11-02T14:04:22.666Z,15.10
2022-11-02T14:06:53.589Z,15.08
2022-11-02T14:09:42.456Z,15.03
2022-11-02T14:12:21.983Z,14.98
2022-11-02T14:15:15.532Z,14.86
2022-11-02T14:17:55.311Z,14.83
2022-11-02T14:20:47.681Z,14.72
2022-11-02T14:23:14.952Z,14.73
2022-11-02T14:28:44.456Z,14.65
2022-11-02T14:31:18.294Z,14.64
2022-11-02T14:34:12.027Z,14.62
2022-11-02T14:36:47.513Z,14.59
2022-11-02T14:39:35.211Z,14.60
2022-11-02T14:42:36.870Z,14.52
2022-11-02T14:45:48.882Z,14.49
2022-11-02T14:48:16.969Z,14.44
2022-11-02T14:51:06.955Z,14.43
2022-11-02T14:53:36.232Z,14.39
2022-11-02T14:56:03.720Z,14.39
2022-11-02T14:58:48.497Z,14.34
2022-11-02T15:01:16.986Z,14.34
2022-11-02T15:03:45.234Z,14.35
2022-11-02T15:06:12.843Z,14.38
2022-11-02T15:09:08.104Z,14.37
2022-11-02T15:11:57.031Z,14.33
2022-11-02T15:14:38.384Z,14.31
2022-11-02T15:17:22.207Z,14.30
2022-11-02T15:20:16.535Z,14.32
2022-11-02T15:23:31.594Z,14.26
2022-11-02T15:25:59.551Z,14.18
2022-11-02T15:28:33.902Z,14.25
2022-11-02T15:31:23.155Z,14.24
2022-11-02T15:33:59.071Z,14.21
2022-11-02T15:36:36.724Z,14.19
2022-11-02T15:39:08.823Z,14.19
2022-11-02T15:41:42.035Z,14.20
2022-11-02T15:44:33.161Z,14.17
2022-11-02T15:47:14.699Z,14.12
2022-11-02T15:50:16.787Z,14.14
2022-11-02T15:53:22.438Z,14.14
2022-11-02T15:56:09.920Z,14.14
2022-11-02T15:58:45.900Z,14.14
2022-11-02T16:01:26.935Z,14.13
2022-11-02T16:06:44.456Z,14.09
2022-11-02T16:09:29.761Z,14.07
2022-11-02T16:12:17.118Z,14.04
2022-11-02T16:14:44.908Z,14.04
2022-11-02T16:17:30.495Z,14.01
2022-11-02T16:23:29.334Z,13.97
2022-11-02T16:26:00.655Z,13.99
2022-11-02T16:28:30.414Z,13.95
2022-11-02T16:30:58.374Z,13.92
2022-11-02T16:33:27.040Z,13.87
2022-11-02T16:35:55.157Z,13.89
2022-11-02T16:38:23.306Z,13.87
2022-11-02T16:43:37.863Z,13.87
2022-11-02T16:46:07.190Z,13.87
2022-11-02T16:48:34.330Z,13.84
2022-11-02T16:51:26.933Z,13.84
2022-11-02T16:53:55.347Z,13.85
2022-11-02T16:56:35.822Z,13.80
2022-11-02T16:59:06.904Z,13.75
2022-11-02T17:02:02.269Z,13.73
2022-11-02T17:04:32.668Z,13.64
2022-11-02T17:07:28.464Z,13.61
2022-11-02T17:09:57.662Z,13.59
2022-11-02T17:12:37.263Z,13.57
2022-11-02T17:15:16.361Z,13.54
2022-11-02T17:17:44.112Z,13.53
2022-11-02T17:20:11.743Z,13.50
2022-11-02T17:22:50.871Z,13.46
2022-11-02T17:25:26.915Z,13.49
2022-11-02T17:27:56.601Z,13.47
2022-11-02T17:30:43.068Z,13.45
2022-11-02T17:33:25.153Z,13.46
2022-11-02T17:36:00.076Z,13.46
2022-11-02T17:38:38.174Z,13.44
2022-11-02T17:41:26.210Z,13.45
2022-11-02T17:43:58.672Z,13.44
2022-11-02T17:46:25.737Z,13.44
2022-11-02T17:48:55.710Z,13.41
2022-11-02T17:51:24.736Z,13.46
2022-11-02T17:53:52.868Z,13.45
2022-11-02T17:59:03.610Z,13.44
2022-11-02T18:01:30.919Z,13.41
2022-11-02T18:03:58.534Z,13.40
2022-11-02T18:06:25.665Z,13.40
2022-11-02T18:09:11.501Z,13.43
2022-11-02T18:11:38.547Z,13.43
2022-11-02T18:14:06.053Z,13.37
2022-11-02T18:16:33.073Z,13.37
2022-11-02T18:19:00.646Z,13.35
2022-11-02T18:21:27.955Z,13.30
2022-11-02T18:23:55.806Z,13.26
2022-11-02T18:26:24.709Z,13.26
2022-11-02T18:28:52.058Z,13.20
2022-11-02T18:31:19.306Z,13.15
2022-11-02T18:33:47.661Z,13.15
2022-11-02T18:36:14.826Z,13.07
2022-11-02T18:38:44.607Z,13.07
2022-11-02T18:41:30.738Z,13.04
2022-11-02T18:44:04.938Z,13.01
2022-11-02T18:46:34.346Z,13.02
2022-11-02T18:49:16.191Z,12.94
2022-11-02T18:55:02.769Z,12.89
2022-11-02T18:57:33.271Z,12.89
2022-11-02T19:00:02.728Z,12.85
2022-11-02T19:02:30.805Z,12.86
2022-11-02T19:04:57.951Z,12.85
2022-11-02T19:07:43.971Z,12.82
2022-11-02T19:10:11.069Z,12.75
2022-11-02T19:12:38.717Z,12.75
2022-11-02T19:15:06.498Z,12.69
2022-11-02T19:17:48.430Z,12.72
2022-11-02T19:20:15.416Z,12.71
2022-11-02T19:25:24.798Z,12.69
2022-11-02T19:27:52.151Z,12.66
2022-11-02T19:30:23.708Z,12.70
2022-11-02T19:32:51.953Z,12.68
2022-11-02T19:35:19.085Z,12.64
2022-11-02T19:37:47.765Z,12.61
2022-11-02T19:40:15.271Z,12.61
2022-11-02T19:42:44.106Z,12.56
2022-11-02T19:45:17.489Z,12.54
2022-11-02T19:47:48.612Z,12.48
2022-11-02T19:50:20.929Z,12.46
2022-11-02T19:56:29.581Z,12.47
2022-11-02T19:59:06.405Z,12.46
2022-11-02T20:01:40.021Z,12.49
2022-11-02T20:04:09.039Z,12.46
2022-11-02T20:06:48.064Z,12.51
2022-11-02T20:09:20.502Z,12.54
2022-11-02T20:11:48.373Z,12.58
2022-11-02T20:14:17.733Z,12.62
2022-11-02T20:16:47.340Z,12.62
2022-11-02T20:19:21.361Z,12.59
2022-11-02T20:21:48.725Z,12.59
2022-11-02T20:24:16.598Z,12.59
2022-11-02T20:26:43.760Z,12.49
2022-11-02T20:29:15.238Z,12.47
2022-11-02T20:31:45.724Z,12.43
2022-11-02T20:34:13.754Z,12.41
2022-11-02T20:36:41.450Z,12.43
2022-11-02T20:39:11.029Z,12.46
2022-11-02T20:41:38.054Z,12.52
2022-11-02T20:44:05.601Z,12.52
2022-11-02T20:46:39.118Z,12.57
2022-11-02T20:49:21.088Z,12.53
2022-11-02T20:51:53.136Z,12.55
2022-11-02T20:54:25.127Z,12.62
2022-11-02T20:56:52.127Z,12.60
2022-11-02T20:59:19.715Z,12.61
2022-11-02T21:01:47.446Z,12.62
2022-11-02T21:04:32.199Z,12.52
2022-11-02T21:07:00.767Z,12.54
2022-11-02T21:09:27.913Z,12.58
2022-11-02T21:12:13.815Z,12.60
2022-11-02T21:14:40.833Z,12.64
2022-11-02T21:17:09.988Z,12.64
2022-11-02T21:19:37.540Z,12.66
2022-11-02T21:22:07.591Z,12.67
2022-11-02T21:24:34.599Z,12.67
2022-11-02T21:27:02.359Z,12.66
2022-11-02T21:29:32.358Z,12.69
2022-11-02T21:32:03.496Z,12.69
2022-11-02T21:34:33.149Z,12.70
2022-11-02T21:37:06.615Z,12.69
2022-11-02T21:39:36.165Z,12.69
2022-11-02T21:42:04.118Z,12.63
2022-11-02T21:44:33.090Z,12.71
2022-11-02T21:47:01.895Z,12.68
2022-11-02T21:49:31.286Z,12.67
2022-11-02T21:51:58.666Z,12.69
2022-11-02T21:54:25.692Z,12.66
2022-11-02T21:56:53.045Z,12.64
2022-11-02T21:59:20.144Z,12.61
2022-11-02T22:01:49.517Z,12.54
2022-11-02T22:04:31.686Z,12.56
2022-11-02T22:07:00.600Z,12.53
2022-11-02T22:09:30.661Z,12.51
2022-11-02T22:12:21.491Z,12.48
2022-11-02T22:14:48.598Z,12.52
2022-11-02T22:17:22.066Z,12.51
2022-11-02T22:20:04.314Z,12.55
2022-11-02T22:22:31.666Z,12.55
2022-11-02T22:24:58.979Z,12.57
2022-11-02T22:27:29.130Z,12.54
2022-11-02T22:29:56.231Z,12.53
2022-11-02T22:32:23.762Z,12.58
2022-11-02T22:34:51.134Z,12.57
2022-11-02T22:37:39.626Z,12.57
2022-11-02T22:40:06.932Z,12.59
2022-11-02T22:42:38.188Z,12.60
2022-11-02T22:45:09.193Z,12.60
2022-11-02T22:47:36.717Z,12.63
2022-11-02T22:50:05.334Z,12.65
2022-11-02T22:52:33.309Z,12.63
2022-11-02T22:55:00.416Z,12.61
2022-11-02T22:57:29.269Z,12.62
2022-11-02T22:59:56.845Z,12.61
2022-11-02T23:02:24.223Z,12.63
2022-11-02T23:04:51.327Z,12.64
2022-11-02T23:07:18.613Z,12.64
2022-11-02T23:09:46.090Z,12.66
2022-11-02T23:12:14.460Z,12.66
2022-11-02T23:14:41.548Z,12.69
2022-11-02T23:17:08.662Z,12.70
2022-11-02T23:19:38.667Z,12.71
2022-11-02T23:22:26.583Z,12.71
2022-11-02T23:25:14.403Z,12.72
2022-11-02T23:28:06.028Z,12.68
2022-11-02T23:30:57.570Z,12.69
2022-11-02T23:33:29.516Z,12.68
2022-11-02T23:36:13.122Z,12.67
2022-11-02T23:39:03.501Z,12.62
2022-11-02T23:41:32.899Z,12.63
2022-11-02T23:44:12.636Z,12.62
2022-11-02T23:46:44.347Z,12.64
2022-11-02T23:49:12.444Z,12.62
2022-11-02T23:52:01.368Z,12.62
2022-11-02T23:54:47.115Z,12.61
2022-11-02T23:57:14.574Z,12.62
2022-11-02T23:59:41.531Z,12.65
